sensor_id;sensor_type;location;lat;lon;timestamp;P1;durP1;ratioP1;P2;durP2;ratioP2
7171;SDS011;3627;46.544;14.944;2024-01-25T00:01:54;1.90;;;1.80;;
7171;SDS011;3627;46.544;14.944;2024-01-25T00:04:22;1.70;;;1.70;;
7171;SDS011;3627;46.544;14.944;2024-01-25T00:06:50;1.90;;;1.80;;
7171;SDS011;3627;46.544;14.944;2024-01-25T00:09:16;1.70;;;1.70;;
7171;SDS011;3627;46.544;14.944;2024-01-25T00:11:42;1.60;;;1.60;;
7171;SDS011;3627;46.544;14.944;2024-01-25T00:14:08;1.80;;;1.80;;
7171;SDS011;3627;46.544;14.944;2024-01-25T00:16:34;1.70;;;1.70;;
7171;SDS011;3627;46.544;14.944;2024-01-25T00:19:00;1.80;;;1.80;;
7171;SDS011;3627;46.544;14.944;2024-01-25T00:21:28;1.97;;;1.90;;
7171;SDS011;3627;46.544;14.944;2024-01-25T00:23:54;1.63;;;1.63;;
7171;SDS011;3627;46.544;14.944;2024-01-25T00:26:21;1.60;;;1.60;;
7171;SDS011;3627;46.544;14.944;2024-01-25T00:28:47;1.80;;;1.80;;
7171;SDS011;3627;46.544;14.944;2024-01-25T00:31:14;1.70;;;1.70;;
7171;SDS011;3627;46.544;14.944;2024-01-25T00:33:40;1.60;;;1.60;;
7171;SDS011;3627;46.544;14.944;2024-01-25T00:36:07;1.60;;;1.60;;
7171;SDS011;3627;46.544;14.944;2024-01-25T00:38:35;1.67;;;1.67;;
7171;SDS011;3627;46.544;14.944;2024-01-25T00:41:02;1.70;;;1.70;;
7171;SDS011;3627;46.544;14.944;2024-01-25T00:43:29;1.67;;;1.67;;
7171;SDS011;3627;46.544;14.944;2024-01-25T00:45:55;1.97;;;1.87;;
7171;SDS011;3627;46.544;14.944;2024-01-25T00:48:22;1.70;;;1.70;;
7171;SDS011;3627;46.544;14.944;2024-01-25T00:50:49;1.70;;;1.70;;
7171;SDS011;3627;46.544;14.944;2024-01-25T00:53:15;1.80;;;1.80;;
7171;SDS011;3627;46.544;14.944;2024-01-25T00:55:43;1.67;;;1.67;;
7171;SDS011;3627;46.544;14.944;2024-01-25T00:58:10;1.60;;;1.60;;
7171;SDS011;3627;46.544;14.944;2024-01-25T01:00:36;1.90;;;1.80;;
7171;SDS011;3627;46.544;14.944;2024-01-25T01:03:03;1.60;;;1.60;;
7171;SDS011;3627;46.544;14.944;2024-01-25T01:05:30;1.80;;;1.80;;
7171;SDS011;3627;46.544;14.944;2024-01-25T01:07:56;1.60;;;1.60;;
7171;SDS011;3627;46.544;14.944;2024-01-25T01:10:23;1.70;;;1.70;;
7171;SDS011;3627;46.544;14.944;2024-01-25T01:12:51;1.60;;;1.60;;
7171;SDS011;3627;46.544;14.944;2024-01-25T01:15:19;1.60;;;1.60;;
7171;SDS011;3627;46.544;14.944;2024-01-25T01:17:45;1.57;;;1.57;;
7171;SDS011;3627;46.544;14.944;2024-01-25T01:20:12;1.73;;;1.73;;
7171;SDS011;3627;46.544;14.944;2024-01-25T01:22:38;1.70;;;1.70;;
7171;SDS011;3627;46.544;14.944;2024-01-25T01:25:04;1.77;;;1.77;;
7171;SDS011;3627;46.544;14.944;2024-01-25T01:27:31;1.60;;;1.60;;
7171;SDS011;3627;46.544;14.944;2024-01-25T01:29:58;1.50;;;1.50;;
7171;SDS011;3627;46.544;14.944;2024-01-25T01:32:25;1.90;;;1.90;;
7171;SDS011;3627;46.544;14.944;2024-01-25T01:34:51;1.50;;;1.50;;
7171;SDS011;3627;46.544;14.944;2024-01-25T01:37:17;1.70;;;1.70;;
7171;SDS011;3627;46.544;14.944;2024-01-25T01:39:44;1.67;;;1.67;;
7171;SDS011;3627;46.544;14.944;2024-01-25T01:42:10;1.70;;;1.70;;
7171;SDS011;3627;46.544;14.944;2024-01-25T01:44:37;1.60;;;1.60;;
7171;SDS011;3627;46.544;14.944;2024-01-25T01:47:06;1.73;;;1.73;;
7171;SDS011;3627;46.544;14.944;2024-01-25T01:49:32;1.60;;;1.60;;
7171;SDS011;3627;46.544;14.944;2024-01-25T01:51:59;1.60;;;1.60;;
7171;SDS011;3627;46.544;14.944;2024-01-25T01:54:25;1.70;;;1.70;;
7171;SDS011;3627;46.544;14.944;2024-01-25T01:56:52;1.70;;;1.70;;
7171;SDS011;3627;46.544;14.944;2024-01-25T01:59:18;1.60;;;1.60;;
7171;SDS011;3627;46.544;14.944;2024-01-25T02:01:45;1.60;;;1.60;;
7171;SDS011;3627;46.544;14.944;2024-01-25T02:04:13;1.50;;;1.50;;
7171;SDS011;3627;46.544;14.944;2024-01-25T02:06:40;1.57;;;1.57;;
7171;SDS011;3627;46.544;14.944;2024-01-25T02:09:08;1.60;;;1.60;;
7171;SDS011;3627;46.544;14.944;2024-01-25T02:11:35;1.60;;;1.60;;
7171;SDS011;3627;46.544;14.944;2024-01-25T02:14:01;1.67;;;1.67;;
7171;SDS011;3627;46.544;14.944;2024-01-25T02:16:27;1.73;;;1.73;;
7171;SDS011;3627;46.544;14.944;2024-01-25T02:18:54;1.50;;;1.50;;
7171;SDS011;3627;46.544;14.944;2024-01-25T02:21:23;1.70;;;1.70;;
7171;SDS011;3627;46.544;14.944;2024-01-25T02:23:51;1.60;;;1.60;;
7171;SDS011;3627;46.544;14.944;2024-01-25T02:26:17;1.50;;;1.50;;
7171;SDS011;3627;46.544;14.944;2024-01-25T02:28:44;1.70;;;1.70;;
7171;SDS011;3627;46.544;14.944;2024-01-25T02:31:10;1.60;;;1.60;;
7171;SDS011;3627;46.544;14.944;2024-01-25T02:33:36;1.87;;;1.87;;
7171;SDS011;3627;46.544;14.944;2024-01-25T02:36:03;1.70;;;1.70;;
7171;SDS011;3627;46.544;14.944;2024-01-25T02:38:29;1.60;;;1.60;;
7171;SDS011;3627;46.544;14.944;2024-01-25T02:40:57;1.57;;;1.57;;
7171;SDS011;3627;46.544;14.944;2024-01-25T02:43:23;1.60;;;1.60;;
7171;SDS011;3627;46.544;14.944;2024-01-25T02:45:50;1.50;;;1.50;;
7171;SDS011;3627;46.544;14.944;2024-01-25T02:48:16;1.60;;;1.60;;
7171;SDS011;3627;46.544;14.944;2024-01-25T02:50:43;1.70;;;1.70;;
7171;SDS011;3627;46.544;14.944;2024-01-25T02:53:09;1.73;;;1.73;;
7171;SDS011;3627;46.544;14.944;2024-01-25T02:55:35;1.60;;;1.60;;
7171;SDS011;3627;46.544;14.944;2024-01-25T02:58:03;1.60;;;1.60;;
7171;SDS011;3627;46.544;14.944;2024-01-25T03:00:30;1.60;;;1.60;;
7171;SDS011;3627;46.544;14.944;2024-01-25T03:02:56;1.60;;;1.60;;
7171;SDS011;3627;46.544;14.944;2024-01-25T03:05:22;1.50;;;1.50;;
7171;SDS011;3627;46.544;14.944;2024-01-25T03:07:49;1.77;;;1.77;;
7171;SDS011;3627;46.544;14.944;2024-01-25T03:10:15;1.70;;;1.70;;
7171;SDS011;3627;46.544;14.944;2024-01-25T03:12:42;1.70;;;1.70;;
7171;SDS011;3627;46.544;14.944;2024-01-25T03:15:10;1.53;;;1.53;;
7171;SDS011;3627;46.544;14.944;2024-01-25T03:17:37;1.70;;;1.70;;
7171;SDS011;3627;46.544;14.944;2024-01-25T03:20:03;1.80;;;1.80;;
7171;SDS011;3627;46.544;14.944;2024-01-25T03:22:30;1.70;;;1.70;;
7171;SDS011;3627;46.544;14.944;2024-01-25T03:24:56;1.73;;;1.73;;
7171;SDS011;3627;46.544;14.944;2024-01-25T03:27:23;1.63;;;1.63;;
7171;SDS011;3627;46.544;14.944;2024-01-25T03:29:49;1.60;;;1.60;;
7171;SDS011;3627;46.544;14.944;2024-01-25T03:32:17;1.60;;;1.60;;
7171;SDS011;3627;46.544;14.944;2024-01-25T03:34:43;1.70;;;1.70;;
7171;SDS011;3627;46.544;14.944;2024-01-25T03:37:09;1.70;;;1.70;;
7171;SDS011;3627;46.544;14.944;2024-01-25T03:39:36;1.60;;;1.60;;
7171;SDS011;3627;46.544;14.944;2024-01-25T03:42:02;1.60;;;1.60;;
7171;SDS011;3627;46.544;14.944;2024-01-25T03:44:29;1.63;;;1.63;;
7171;SDS011;3627;46.544;14.944;2024-01-25T03:46:55;1.60;;;1.60;;
7171;SDS011;3627;46.544;14.944;2024-01-25T03:49:23;1.70;;;1.70;;
7171;SDS011;3627;46.544;14.944;2024-01-25T03:51:49;1.50;;;1.50;;
7171;SDS011;3627;46.544;14.944;2024-01-25T03:54:16;1.60;;;1.60;;
7171;SDS011;3627;46.544;14.944;2024-01-25T03:56:42;1.70;;;1.70;;
7171;SDS011;3627;46.544;14.944;2024-01-25T03:59:09;1.80;;;1.80;;
7171;SDS011;3627;46.544;14.944;2024-01-25T04:01:41;1.50;;;1.50;;
7171;SDS011;3627;46.544;14.944;2024-01-25T04:04:07;1.60;;;1.60;;
7171;SDS011;3627;46.544;14.944;2024-01-25T04:06:37;1.80;;;1.80;;
7171;SDS011;3627;46.544;14.944;2024-01-25T04:09:03;1.60;;;1.60;;
7171;SDS011;3627;46.544;14.944;2024-01-25T04:11:30;1.70;;;1.70;;
7171;SDS011;3627;46.544;14.944;2024-01-25T04:13:56;1.60;;;1.60;;
7171;SDS011;3627;46.544;14.944;2024-01-25T04:16:23;1.70;;;1.70;;
7171;SDS011;3627;46.544;14.944;2024-01-25T04:18:49;1.60;;;1.60;;
7171;SDS011;3627;46.544;14.944;2024-01-25T04:21:15;1.50;;;1.50;;
7171;SDS011;3627;46.544;14.944;2024-01-25T04:23:42;1.77;;;1.77;;
7171;SDS011;3627;46.544;14.944;2024-01-25T04:26:09;1.60;;;1.60;;
7171;SDS011;3627;46.544;14.944;2024-01-25T04:28:35;1.60;;;1.60;;
7171;SDS011;3627;46.544;14.944;2024-01-25T04:31:02;1.60;;;1.60;;
7171;SDS011;3627;46.544;14.944;2024-01-25T04:33:28;1.60;;;1.60;;
7171;SDS011;3627;46.544;14.944;2024-01-25T04:35:55;1.60;;;1.60;;
7171;SDS011;3627;46.544;14.944;2024-01-25T04:38:22;1.50;;;1.50;;
7171;SDS011;3627;46.544;14.944;2024-01-25T04:40:49;1.70;;;1.70;;
7171;SDS011;3627;46.544;14.944;2024-01-25T04:43:16;1.60;;;1.60;;
7171;SDS011;3627;46.544;14.944;2024-01-25T04:45:42;1.67;;;1.67;;
7171;SDS011;3627;46.544;14.944;2024-01-25T04:48:08;1.60;;;1.60;;
7171;SDS011;3627;46.544;14.944;2024-01-25T04:50:35;1.73;;;1.73;;
7171;SDS011;3627;46.544;14.944;2024-01-25T04:53:01;1.73;;;1.73;;
7171;SDS011;3627;46.544;14.944;2024-01-25T04:55:28;1.80;;;1.80;;
7171;SDS011;3627;46.544;14.944;2024-01-25T04:57:55;1.60;;;1.60;;
7171;SDS011;3627;46.544;14.944;2024-01-25T05:00:22;1.80;;;1.80;;
7171;SDS011;3627;46.544;14.944;2024-01-25T05:02:48;1.70;;;1.70;;
7171;SDS011;3627;46.544;14.944;2024-01-25T05:05:15;1.70;;;1.70;;
7171;SDS011;3627;46.544;14.944;2024-01-25T05:07:41;1.70;;;1.70;;
7171;SDS011;3627;46.544;14.944;2024-01-25T05:10:08;1.90;;;1.90;;
7171;SDS011;3627;46.544;14.944;2024-01-25T05:12:34;1.90;;;1.90;;
7171;SDS011;3627;46.544;14.944;2024-01-25T05:15:02;1.80;;;1.80;;
7171;SDS011;3627;46.544;14.944;2024-01-25T05:17:28;1.60;;;1.60;;
7171;SDS011;3627;46.544;14.944;2024-01-25T05:19:55;1.50;;;1.50;;
7171;SDS011;3627;46.544;14.944;2024-01-25T05:22:21;1.77;;;1.77;;
7171;SDS011;3627;46.544;14.944;2024-01-25T05:24:48;1.80;;;1.80;;
7171;SDS011;3627;46.544;14.944;2024-01-25T05:27:14;1.60;;;1.60;;
7171;SDS011;3627;46.544;14.944;2024-01-25T05:29:41;1.90;;;1.80;;
7171;SDS011;3627;46.544;14.944;2024-01-25T05:32:08;1.70;;;1.70;;
7171;SDS011;3627;46.544;14.944;2024-01-25T05:34:35;1.70;;;1.70;;
7171;SDS011;3627;46.544;14.944;2024-01-25T05:37:01;1.60;;;1.60;;
7171;SDS011;3627;46.544;14.944;2024-01-25T05:39:28;1.70;;;1.70;;
7171;SDS011;3627;46.544;14.944;2024-01-25T05:41:54;1.73;;;1.73;;
7171;SDS011;3627;46.544;14.944;2024-01-25T05:44:20;1.80;;;1.80;;
7171;SDS011;3627;46.544;14.944;2024-01-25T05:46:47;1.60;;;1.60;;
7171;SDS011;3627;46.544;14.944;2024-01-25T05:49:14;1.60;;;1.60;;
7171;SDS011;3627;46.544;14.944;2024-01-25T05:51:41;1.60;;;1.60;;
7171;SDS011;3627;46.544;14.944;2024-01-25T05:54:07;1.60;;;1.60;;
7171;SDS011;3627;46.544;14.944;2024-01-25T05:56:34;1.70;;;1.70;;
7171;SDS011;3627;46.544;14.944;2024-01-25T05:59:00;1.70;;;1.70;;
7171;SDS011;3627;46.544;14.944;2024-01-25T06:01:26;1.63;;;1.63;;
7171;SDS011;3627;46.544;14.944;2024-01-25T06:03:53;1.83;;;1.80;;
7171;SDS011;3627;46.544;14.944;2024-01-25T06:06:20;1.60;;;1.60;;
7171;SDS011;3627;46.544;14.944;2024-01-25T06:08:47;1.77;;;1.77;;
7171;SDS011;3627;46.544;14.944;2024-01-25T06:11:13;1.70;;;1.70;;
7171;SDS011;3627;46.544;14.944;2024-01-25T06:13:40;1.70;;;1.70;;
7171;SDS011;3627;46.544;14.944;2024-01-25T06:16:07;1.60;;;1.60;;
7171;SDS011;3627;46.544;14.944;2024-01-25T06:18:34;1.70;;;1.70;;
7171;SDS011;3627;46.544;14.944;2024-01-25T06:21:00;1.90;;;1.80;;
7171;SDS011;3627;46.544;14.944;2024-01-25T06:23:28;1.97;;;1.87;;
7171;SDS011;3627;46.544;14.944;2024-01-25T06:25:54;1.70;;;1.70;;
7171;SDS011;3627;46.544;14.944;2024-01-25T06:28:20;1.63;;;1.63;;
7171;SDS011;3627;46.544;14.944;2024-01-25T06:30:47;2.00;;;1.90;;
7171;SDS011;3627;46.544;14.944;2024-01-25T06:33:13;2.03;;;1.93;;
7171;SDS011;3627;46.544;14.944;2024-01-25T06:35:40;1.80;;;1.80;;
7171;SDS011;3627;46.544;14.944;2024-01-25T06:38:06;1.90;;;1.90;;
7171;SDS011;3627;46.544;14.944;2024-01-25T06:40:34;1.70;;;1.70;;
7171;SDS011;3627;46.544;14.944;2024-01-25T06:43:00;1.73;;;1.73;;
7171;SDS011;3627;46.544;14.944;2024-01-25T06:45:26;1.60;;;1.60;;
7171;SDS011;3627;46.544;14.944;2024-01-25T06:47:53;1.97;;;1.90;;
7171;SDS011;3627;46.544;14.944;2024-01-25T06:50:19;2.07;;;1.97;;
7171;SDS011;3627;46.544;14.944;2024-01-25T06:52:45;1.70;;;1.70;;
7171;SDS011;3627;46.544;14.944;2024-01-25T06:55:13;2.00;;;1.90;;
7171;SDS011;3627;46.544;14.944;2024-01-25T06:57:41;1.80;;;1.80;;
7171;SDS011;3627;46.544;14.944;2024-01-25T07:00:07;1.83;;;1.83;;
7171;SDS011;3627;46.544;14.944;2024-01-25T07:02:36;1.93;;;1.90;;
7171;SDS011;3627;46.544;14.944;2024-01-25T07:05:02;2.00;;;1.90;;
7171;SDS011;3627;46.544;14.944;2024-01-25T07:07:29;1.70;;;1.70;;
7171;SDS011;3627;46.544;14.944;2024-01-25T07:09:57;1.70;;;1.70;;
7171;SDS011;3627;46.544;14.944;2024-01-25T07:12:23;2.10;;;2.00;;
7171;SDS011;3627;46.544;14.944;2024-01-25T07:14:51;1.93;;;1.83;;
7171;SDS011;3627;46.544;14.944;2024-01-25T07:17:17;1.70;;;1.70;;
7171;SDS011;3627;46.544;14.944;2024-01-25T07:19:44;1.70;;;1.70;;
7171;SDS011;3627;46.544;14.944;2024-01-25T07:22:10;1.60;;;1.60;;
7171;SDS011;3627;46.544;14.944;2024-01-25T07:24:39;2.10;;;2.00;;
7171;SDS011;3627;46.544;14.944;2024-01-25T07:27:05;2.00;;;1.90;;
7171;SDS011;3627;46.544;14.944;2024-01-25T07:29:31;1.70;;;1.70;;
7171;SDS011;3627;46.544;14.944;2024-01-25T07:31:59;1.60;;;1.60;;
7171;SDS011;3627;46.544;14.944;2024-01-25T07:34:26;1.70;;;1.70;;
7171;SDS011;3627;46.544;14.944;2024-01-25T07:36:52;1.73;;;1.73;;
7171;SDS011;3627;46.544;14.944;2024-01-25T07:39:18;1.60;;;1.60;;
7171;SDS011;3627;46.544;14.944;2024-01-25T07:41:45;1.70;;;1.70;;
7171;SDS011;3627;46.544;14.944;2024-01-25T07:44:12;2.00;;;1.90;;
7171;SDS011;3627;46.544;14.944;2024-01-25T07:46:38;1.97;;;1.87;;
7171;SDS011;3627;46.544;14.944;2024-01-25T07:49:06;1.60;;;1.60;;
7171;SDS011;3627;46.544;14.944;2024-01-25T07:51:32;1.70;;;1.70;;
7171;SDS011;3627;46.544;14.944;2024-01-25T07:53:58;1.67;;;1.67;;
7171;SDS011;3627;46.544;14.944;2024-01-25T07:56:25;1.70;;;1.70;;
7171;SDS011;3627;46.544;14.944;2024-01-25T07:58:51;1.60;;;1.60;;
7171;SDS011;3627;46.544;14.944;2024-01-25T08:01:18;1.57;;;1.57;;
7171;SDS011;3627;46.544;14.944;2024-01-25T08:03:44;1.55;;;1.55;;
7171;SDS011;3627;46.544;14.944;2024-01-25T08:06:12;1.67;;;1.67;;
7171;SDS011;3627;46.544;14.944;2024-01-25T08:08:39;1.45;;;1.45;;
7171;SDS011;3627;46.544;14.944;2024-01-25T08:11:05;1.58;;;1.58;;
7171;SDS011;3627;46.544;14.944;2024-01-25T08:13:33;1.60;;;1.60;;
7171;SDS011;3627;46.544;14.944;2024-01-25T08:15:59;1.30;;;1.30;;
7171;SDS011;3627;46.544;14.944;2024-01-25T08:18:26;1.30;;;1.30;;
7171;SDS011;3627;46.544;14.944;2024-01-25T08:20:55;1.30;;;1.30;;
7171;SDS011;3627;46.544;14.944;2024-01-25T08:23:23;1.13;;;1.13;;
7171;SDS011;3627;46.544;14.944;2024-01-25T08:25:49;1.15;;;1.15;;
7171;SDS011;3627;46.544;14.944;2024-01-25T08:28:15;1.00;;;1.00;;
7171;SDS011;3627;46.544;14.944;2024-01-25T08:30:42;1.20;;;1.20;;
7171;SDS011;3627;46.544;14.944;2024-01-25T08:33:08;1.10;;;1.10;;
7171;SDS011;3627;46.544;14.944;2024-01-25T08:35:34;1.00;;;1.00;;
7171;SDS011;3627;46.544;14.944;2024-01-25T08:38:01;1.17;;;1.17;;
7171;SDS011;3627;46.544;14.944;2024-01-25T08:40:29;1.00;;;1.00;;
7171;SDS011;3627;46.544;14.944;2024-01-25T08:42:55;0.98;;;0.98;;
7171;SDS011;3627;46.544;14.944;2024-01-25T08:45:21;0.80;;;0.80;;
7171;SDS011;3627;46.544;14.944;2024-01-25T08:47:48;0.82;;;0.82;;
7171;SDS011;3627;46.544;14.944;2024-01-25T08:50:16;0.80;;;0.80;;
7171;SDS011;3627;46.544;14.944;2024-01-25T08:52:42;0.80;;;0.80;;
7171;SDS011;3627;46.544;14.944;2024-01-25T08:55:09;0.60;;;0.60;;
7171;SDS011;3627;46.544;14.944;2024-01-25T08:57:37;0.70;;;0.70;;
7171;SDS011;3627;46.544;14.944;2024-01-25T09:00:05;0.70;;;0.70;;
7171;SDS011;3627;46.544;14.944;2024-01-25T09:02:35;0.60;;;0.60;;
7171;SDS011;3627;46.544;14.944;2024-01-25T09:05:01;0.70;;;0.70;;
7171;SDS011;3627;46.544;14.944;2024-01-25T09:07:28;0.52;;;0.52;;
7171;SDS011;3627;46.544;14.944;2024-01-25T09:09:54;0.70;;;0.70;;
7171;SDS011;3627;46.544;14.944;2024-01-25T09:12:20;0.52;;;0.52;;
7171;SDS011;3627;46.544;14.944;2024-01-25T09:14:48;0.60;;;0.60;;
7171;SDS011;3627;46.544;14.944;2024-01-25T09:17:14;0.80;;;0.80;;
7171;SDS011;3627;46.544;14.944;2024-01-25T09:19:46;0.60;;;0.60;;
7171;SDS011;3627;46.544;14.944;2024-01-25T09:22:13;0.60;;;0.60;;
7171;SDS011;3627;46.544;14.944;2024-01-25T09:24:41;0.50;;;0.50;;
7171;SDS011;3627;46.544;14.944;2024-01-25T09:27:08;0.60;;;0.60;;
7171;SDS011;3627;46.544;14.944;2024-01-25T09:29:34;0.60;;;0.60;;
7171;SDS011;3627;46.544;14.944;2024-01-25T09:32:02;0.45;;;0.45;;
7171;SDS011;3627;46.544;14.944;2024-01-25T09:34:29;0.40;;;0.40;;
7171;SDS011;3627;46.544;14.944;2024-01-25T09:36:55;0.50;;;0.50;;
7171;SDS011;3627;46.544;14.944;2024-01-25T09:39:22;0.40;;;0.40;;
7171;SDS011;3627;46.544;14.944;2024-01-25T09:41:48;0.30;;;0.30;;
7171;SDS011;3627;46.544;14.944;2024-01-25T09:44:14;0.60;;;0.60;;
7171;SDS011;3627;46.544;14.944;2024-01-25T09:46:42;0.40;;;0.40;;
7171;SDS011;3627;46.544;14.944;2024-01-25T09:49:10;0.45;;;0.45;;
7171;SDS011;3627;46.544;14.944;2024-01-25T09:51:38;0.40;;;0.40;;
7171;SDS011;3627;46.544;14.944;2024-01-25T09:54:04;0.30;;;0.30;;
7171;SDS011;3627;46.544;14.944;2024-01-25T09:56:32;0.32;;;0.32;;
7171;SDS011;3627;46.544;14.944;2024-01-25T09:58:58;0.38;;;0.38;;
7171;SDS011;3627;46.544;14.944;2024-01-25T10:01:25;0.32;;;0.32;;
7171;SDS011;3627;46.544;14.944;2024-01-25T10:03:51;0.35;;;0.35;;
7171;SDS011;3627;46.544;14.944;2024-01-25T10:06:19;0.40;;;0.40;;
7171;SDS011;3627;46.544;14.944;2024-01-25T10:08:45;0.50;;;0.50;;
7171;SDS011;3627;46.544;14.944;2024-01-25T10:11:12;0.40;;;0.40;;
7171;SDS011;3627;46.544;14.944;2024-01-25T10:13:42;0.40;;;0.40;;
7171;SDS011;3627;46.544;14.944;2024-01-25T10:16:10;0.50;;;0.50;;
7171;SDS011;3627;46.544;14.944;2024-01-25T10:18:36;0.45;;;0.45;;
7171;SDS011;3627;46.544;14.944;2024-01-25T10:21:03;0.40;;;0.40;;
7171;SDS011;3627;46.544;14.944;2024-01-25T10:23:31;0.40;;;0.40;;
7171;SDS011;3627;46.544;14.944;2024-01-25T10:25:57;0.30;;;0.30;;
7171;SDS011;3627;46.544;14.944;2024-01-25T10:28:24;0.30;;;0.30;;
7171;SDS011;3627;46.544;14.944;2024-01-25T10:30:50;0.50;;;0.50;;
7171;SDS011;3627;46.544;14.944;2024-01-25T10:33:17;0.30;;;0.30;;
7171;SDS011;3627;46.544;14.944;2024-01-25T10:35:44;0.40;;;0.40;;
7171;SDS011;3627;46.544;14.944;2024-01-25T10:38:14;0.50;;;0.50;;
7171;SDS011;3627;46.544;14.944;2024-01-25T10:40:43;0.55;;;0.55;;
7171;SDS011;3627;46.544;14.944;2024-01-25T10:43:09;0.40;;;0.40;;
7171;SDS011;3627;46.544;14.944;2024-01-25T10:45:36;0.60;;;0.60;;
7171;SDS011;3627;46.544;14.944;2024-01-25T10:48:02;0.47;;;0.47;;
7171;SDS011;3627;46.544;14.944;2024-01-25T10:50:29;0.55;;;0.55;;
7171;SDS011;3627;46.544;14.944;2024-01-25T10:52:55;0.73;;;0.73;;
7171;SDS011;3627;46.544;14.944;2024-01-25T10:55:22;0.70;;;0.70;;
7171;SDS011;3627;46.544;14.944;2024-01-25T10:57:52;0.93;;;0.93;;
7171;SDS011;3627;46.544;14.944;2024-01-25T11:00:18;0.93;;;0.93;;
7171;SDS011;3627;46.544;14.944;2024-01-25T11:02:45;0.80;;;0.80;;
7171;SDS011;3627;46.544;14.944;2024-01-25T11:05:12;0.90;;;0.90;;
7171;SDS011;3627;46.544;14.944;2024-01-25T11:07:42;0.98;;;0.98;;
7171;SDS011;3627;46.544;14.944;2024-01-25T11:10:11;1.05;;;1.05;;
7171;SDS011;3627;46.544;14.944;2024-01-25T11:12:46;1.08;;;1.08;;
7171;SDS011;3627;46.544;14.944;2024-01-25T11:15:18;1.10;;;1.10;;
7171;SDS011;3627;46.544;14.944;2024-01-25T11:17:50;1.10;;;1.10;;
7171;SDS011;3627;46.544;14.944;2024-01-25T11:20:19;1.10;;;1.10;;
7171;SDS011;3627;46.544;14.944;2024-01-25T11:22:45;1.10;;;1.10;;
7171;SDS011;3627;46.544;14.944;2024-01-25T11:25:12;1.13;;;1.13;;
7171;SDS011;3627;46.544;14.944;2024-01-25T11:27:42;1.20;;;1.20;;
7171;SDS011;3627;46.544;14.944;2024-01-25T11:30:09;1.20;;;1.20;;
7171;SDS011;3627;46.544;14.944;2024-01-25T11:32:38;1.20;;;1.20;;
7171;SDS011;3627;46.544;14.944;2024-01-25T11:35:04;1.17;;;1.17;;
7171;SDS011;3627;46.544;14.944;2024-01-25T11:37:31;1.10;;;1.10;;
7171;SDS011;3627;46.544;14.944;2024-01-25T11:39:57;1.10;;;1.10;;
7171;SDS011;3627;46.544;14.944;2024-01-25T11:42:24;1.30;;;1.30;;
7171;SDS011;3627;46.544;14.944;2024-01-25T11:44:50;1.00;;;1.00;;
7171;SDS011;3627;46.544;14.944;2024-01-25T11:47:16;1.10;;;1.10;;
7171;SDS011;3627;46.544;14.944;2024-01-25T11:49:46;1.20;;;1.20;;
7171;SDS011;3627;46.544;14.944;2024-01-25T11:52:12;1.25;;;1.25;;
7171;SDS011;3627;46.544;14.944;2024-01-25T11:54:39;1.20;;;1.20;;
7171;SDS011;3627;46.544;14.944;2024-01-25T11:57:05;1.33;;;1.33;;
7171;SDS011;3627;46.544;14.944;2024-01-25T11:59:32;1.10;;;1.10;;
7171;SDS011;3627;46.544;14.944;2024-01-25T12:01:59;1.17;;;1.17;;
7171;SDS011;3627;46.544;14.944;2024-01-25T12:04:26;1.20;;;1.20;;
7171;SDS011;3627;46.544;14.944;2024-01-25T12:06:54;1.30;;;1.30;;
7171;SDS011;3627;46.544;14.944;2024-01-25T12:09:21;1.40;;;1.40;;
7171;SDS011;3627;46.544;14.944;2024-01-25T12:11:49;1.30;;;1.30;;
7171;SDS011;3627;46.544;14.944;2024-01-25T12:14:15;1.10;;;1.10;;
7171;SDS011;3627;46.544;14.944;2024-01-25T12:16:42;1.20;;;1.20;;
7171;SDS011;3627;46.544;14.944;2024-01-25T12:19:08;1.30;;;1.30;;
7171;SDS011;3627;46.544;14.944;2024-01-25T12:21:35;1.30;;;1.30;;
7171;SDS011;3627;46.544;14.944;2024-01-25T12:24:03;1.10;;;1.10;;
7171;SDS011;3627;46.544;14.944;2024-01-25T12:26:33;1.20;;;1.20;;
7171;SDS011;3627;46.544;14.944;2024-01-25T12:28:59;1.20;;;1.20;;
7171;SDS011;3627;46.544;14.944;2024-01-25T12:31:26;1.17;;;1.17;;
7171;SDS011;3627;46.544;14.944;2024-01-25T12:33:52;1.10;;;1.10;;
7171;SDS011;3627;46.544;14.944;2024-01-25T12:36:18;1.20;;;1.20;;
7171;SDS011;3627;46.544;14.944;2024-01-25T12:38:45;1.30;;;1.30;;
7171;SDS011;3627;46.544;14.944;2024-01-25T12:41:15;1.15;;;1.15;;
7171;SDS011;3627;46.544;14.944;2024-01-25T12:43:41;1.40;;;1.40;;
7171;SDS011;3627;46.544;14.944;2024-01-25T12:46:07;1.10;;;1.10;;
7171;SDS011;3627;46.544;14.944;2024-01-25T12:48:34;1.15;;;1.15;;
7171;SDS011;3627;46.544;14.944;2024-01-25T12:51:00;1.10;;;1.10;;
7171;SDS011;3627;46.544;14.944;2024-01-25T12:53:27;1.20;;;1.20;;
7171;SDS011;3627;46.544;14.944;2024-01-25T12:55:53;1.20;;;1.20;;
7171;SDS011;3627;46.544;14.944;2024-01-25T12:58:21;1.20;;;1.20;;
7171;SDS011;3627;46.544;14.944;2024-01-25T13:00:47;1.33;;;1.33;;
7171;SDS011;3627;46.544;14.944;2024-01-25T13:03:14;1.30;;;1.30;;
7171;SDS011;3627;46.544;14.944;2024-01-25T13:05:40;1.17;;;1.17;;
7171;SDS011;3627;46.544;14.944;2024-01-25T13:08:06;1.10;;;1.10;;
7171;SDS011;3627;46.544;14.944;2024-01-25T13:10:33;1.30;;;1.30;;
7171;SDS011;3627;46.544;14.944;2024-01-25T13:12:59;1.20;;;1.20;;
7171;SDS011;3627;46.544;14.944;2024-01-25T13:15:27;1.40;;;1.40;;
7171;SDS011;3627;46.544;14.944;2024-01-25T13:17:53;1.30;;;1.30;;
7171;SDS011;3627;46.544;14.944;2024-01-25T13:20:20;1.15;;;1.15;;
7171;SDS011;3627;46.544;14.944;2024-01-25T13:22:46;1.13;;;1.13;;
7171;SDS011;3627;46.544;14.944;2024-01-25T13:25:12;1.17;;;1.17;;
7171;SDS011;3627;46.544;14.944;2024-01-25T13:27:40;1.20;;;1.20;;
7171;SDS011;3627;46.544;14.944;2024-01-25T13:30:06;1.25;;;1.25;;
7171;SDS011;3627;46.544;14.944;2024-01-25T13:32:37;1.40;;;1.40;;
7171;SDS011;3627;46.544;14.944;2024-01-25T13:35:04;1.15;;;1.15;;
7171;SDS011;3627;46.544;14.944;2024-01-25T13:37:30;1.30;;;1.30;;
7171;SDS011;3627;46.544;14.944;2024-01-25T13:39:57;1.30;;;1.30;;
7171;SDS011;3627;46.544;14.944;2024-01-25T13:42:23;1.30;;;1.30;;
7171;SDS011;3627;46.544;14.944;2024-01-25T13:44:50;1.20;;;1.20;;
7171;SDS011;3627;46.544;14.944;2024-01-25T13:47:16;1.23;;;1.23;;
7171;SDS011;3627;46.544;14.944;2024-01-25T13:49:44;1.38;;;1.38;;
7171;SDS011;3627;46.544;14.944;2024-01-25T13:52:15;1.20;;;1.20;;
7171;SDS011;3627;46.544;14.944;2024-01-25T13:54:43;1.20;;;1.20;;
7171;SDS011;3627;46.544;14.944;2024-01-25T13:57:09;1.20;;;1.20;;
7171;SDS011;3627;46.544;14.944;2024-01-25T13:59:35;1.40;;;1.40;;
7171;SDS011;3627;46.544;14.944;2024-01-25T14:02:02;1.30;;;1.30;;
7171;SDS011;3627;46.544;14.944;2024-01-25T14:04:29;1.20;;;1.20;;
7171;SDS011;3627;46.544;14.944;2024-01-25T14:06:56;1.30;;;1.30;;
7171;SDS011;3627;46.544;14.944;2024-01-25T14:09:23;1.30;;;1.30;;
7171;SDS011;3627;46.544;14.944;2024-01-25T14:11:49;1.30;;;1.30;;
7171;SDS011;3627;46.544;14.944;2024-01-25T14:14:16;1.27;;;1.27;;
7171;SDS011;3627;46.544;14.944;2024-01-25T14:16:42;1.40;;;1.40;;
7171;SDS011;3627;46.544;14.944;2024-01-25T14:19:08;1.35;;;1.35;;
7171;SDS011;3627;46.544;14.944;2024-01-25T14:21:35;1.40;;;1.40;;
7171;SDS011;3627;46.544;14.944;2024-01-25T14:24:02;1.40;;;1.40;;
7171;SDS011;3627;46.544;14.944;2024-01-25T14:26:29;1.38;;;1.38;;
7171;SDS011;3627;46.544;14.944;2024-01-25T14:28:55;1.40;;;1.40;;
7171;SDS011;3627;46.544;14.944;2024-01-25T14:31:22;1.50;;;1.50;;
7171;SDS011;3627;46.544;14.944;2024-01-25T14:33:48;1.52;;;1.52;;
7171;SDS011;3627;46.544;14.944;2024-01-25T14:36:14;1.40;;;1.40;;
7171;SDS011;3627;46.544;14.944;2024-01-25T14:38:41;1.40;;;1.40;;
7171;SDS011;3627;46.544;14.944;2024-01-25T14:41:09;1.45;;;1.45;;
7171;SDS011;3627;46.544;14.944;2024-01-25T14:43:37;1.40;;;1.40;;
7171;SDS011;3627;46.544;14.944;2024-01-25T14:46:03;1.40;;;1.40;;
7171;SDS011;3627;46.544;14.944;2024-01-25T14:48:30;1.40;;;1.40;;
7171;SDS011;3627;46.544;14.944;2024-01-25T14:50:56;1.40;;;1.40;;
7171;SDS011;3627;46.544;14.944;2024-01-25T14:53:22;1.40;;;1.40;;
7171;SDS011;3627;46.544;14.944;2024-01-25T14:55:49;1.45;;;1.45;;
7171;SDS011;3627;46.544;14.944;2024-01-25T14:58:17;1.40;;;1.40;;